sensor_id;sensor_type;location;lat;lon;timestamp;pressure;altitude;pressure_sealevel;temperature;humidity
8334;BME280;4204;43.004;23.052;2023-09-19T00:00:27;94204.22;;;14.93;nan
8334;BME280;4204;43.004;23.052;2023-09-19T00:02:55;94201.88;;;14.92;nan
8334;BME280;4204;43.004;23.052;2023-09-19T00:05:25;94194.94;;;14.91;nan
8334;BME280;4204;43.004;23.052;2023-09-19T00:07:55;94187.63;;;15.00;nan
8334;BME280;4204;43.004;23.052;2023-09-19T00:10:24;94183.44;;;14.90;nan
8334;BME280;4204;43.004;23.052;2023-09-19T00:12:53;94182.56;;;14.98;nan
8334;BME280;4204;43.004;23.052;2023-09-19T00:15:39;94185.50;;;15.05;nan
8334;BME280;4204;43.004;23.052;2023-09-19T00:18:07;94192.06;;;14.96;nan
8334;BME280;4204;43.004;23.052;2023-09-19T00:20:36;94192.59;;;14.89;nan
8334;BME280;4204;43.004;23.052;2023-09-19T00:23:04;94181.75;;;14.86;nan
8334;BME280;4204;43.004;23.052;2023-09-19T00:25:35;94194.16;;;14.90;nan
8334;BME280;4204;43.004;23.052;2023-09-19T00:28:04;94184.94;;;15.00;nan
8334;BME280;4204;43.004;23.052;2023-09-19T00:30:33;94193.84;;;14.92;nan
8334;BME280;4204;43.004;23.052;2023-09-19T00:33:03;94183.34;;;14.99;nan
8334;BME280;4204;43.004;23.052;2023-09-19T00:35:32;94173.94;;;14.81;nan
8334;BME280;4204;43.004;23.052;2023-09-19T00:38:00;94176.88;;;14.67;nan
8334;BME280;4204;43.004;23.052;2023-09-19T00:40:29;94165.34;;;14.75;nan
8334;BME280;4204;43.004;23.052;2023-09-19T00:42:59;94168.00;;;14.75;nan
8334;BME280;4204;43.004;23.052;2023-09-19T00:45:27;94175.09;;;14.92;nan
8334;BME280;4204;43.004;23.052;2023-09-19T00:47:55;94179.13;;;14.98;nan
8334;BME280;4204;43.004;23.052;2023-09-19T00:50:26;94183.00;;;15.00;nan
8334;BME280;4204;43.004;23.052;2023-09-19T00:52:55;94169.94;;;14.87;nan
8334;BME280;4204;43.004;23.052;2023-09-19T00:55:24;94179.13;;;14.98;nan
8334;BME280;4204;43.004;23.052;2023-09-19T00:57:52;94183.88;;;14.92;nan
8334;BME280;4204;43.004;23.052;2023-09-19T01:00:20;94182.41;;;14.83;nan
8334;BME280;4204;43.004;23.052;2023-09-19T01:02:49;94183.50;;;14.82;nan
8334;BME280;4204;43.004;23.052;2023-09-19T01:05:17;94185.56;;;14.85;nan
8334;BME280;4204;43.004;23.052;2023-09-19T01:07:47;94189.44;;;14.75;nan
8334;BME280;4204;43.004;23.052;2023-09-19T01:10:17;94194.84;;;14.67;nan
8334;BME280;4204;43.004;23.052;2023-09-19T01:12:55;94187.13;;;14.65;nan
8334;BME280;4204;43.004;23.052;2023-09-19T01:15:36;94178.53;;;14.59;nan
8334;BME280;4204;43.004;23.052;2023-09-19T01:18:16;94183.03;;;14.47;nan
8334;BME280;4204;43.004;23.052;2023-09-19T01:20:57;94186.13;;;14.37;nan
8334;BME280;4204;43.004;23.052;2023-09-19T01:23:44;94186.63;;;14.30;nan
8334;BME280;4204;43.004;23.052;2023-09-19T01:26:30;94176.53;;;14.36;nan
8334;BME280;4204;43.004;23.052;2023-09-19T01:29:23;94178.09;;;14.37;nan
8334;BME280;4204;43.004;23.052;2023-09-19T01:31:59;94179.13;;;14.44;nan
8334;BME280;4204;43.004;23.052;2023-09-19T01:34:43;94171.81;;;14.53;nan
8334;BME280;4204;43.004;23.052;2023-09-19T01:37:12;94174.75;;;14.61;nan
8334;BME280;4204;43.004;23.052;2023-09-19T01:39:40;94180.56;;;14.63;nan
8334;BME280;4204;43.004;23.052;2023-09-19T01:42:14;94185.38;;;14.69;nan
8334;BME280;4204;43.004;23.052;2023-09-19T01:44:52;94176.97;;;14.58;nan
8334;BME280;4204;43.004;23.052;2023-09-19T01:47:34;94181.31;;;14.63;nan
8334;BME280;4204;43.004;23.052;2023-09-19T01:50:13;94176.31;;;14.62;nan
8334;BME280;4204;43.004;23.052;2023-09-19T01:52:49;94179.22;;;14.56;nan
8334;BME280;4204;43.004;23.052;2023-09-19T01:55:22;94184.28;;;14.49;nan
8334;BME280;4204;43.004;23.052;2023-09-19T01:57:57;94178.34;;;14.65;nan
8334;BME280;4204;43.004;23.052;2023-09-19T02:00:27;94174.75;;;14.61;nan
8334;BME280;4204;43.004;23.052;2023-09-19T02:02:59;94181.63;;;14.49;nan
8334;BME280;4204;43.004;23.052;2023-09-19T02:05:27;94178.66;;;14.42;nan
8334;BME280;4204;43.004;23.052;2023-09-19T02:07:55;94165.22;;;14.30;nan
8334;BME280;4204;43.004;23.052;2023-09-19T02:10:25;94171.72;;;14.29;nan
8334;BME280;4204;43.004;23.052;2023-09-19T02:12:52;94170.25;;;14.32;nan
8334;BME280;4204;43.004;23.052;2023-09-19T02:15:20;94154.66;;;14.34;nan
8334;BME280;4204;43.004;23.052;2023-09-19T02:17:48;94158.91;;;14.35;nan
8334;BME280;4204;43.004;23.052;2023-09-19T02:20:17;94161.75;;;14.50;nan
8334;BME280;4204;43.004;23.052;2023-09-19T02:22:46;94166.06;;;14.43;nan
8334;BME280;4204;43.004;23.052;2023-09-19T02:25:16;94159.75;;;14.47;nan
8334;BME280;4204;43.004;23.052;2023-09-19T02:27:45;94169.03;;;14.50;nan
8334;BME280;4204;43.004;23.052;2023-09-19T02:30:33;94159.94;;;14.42;nan
8334;BME280;4204;43.004;23.052;2023-09-19T02:33:00;94172.41;;;14.38;nan
8334;BME280;4204;43.004;23.052;2023-09-19T02:35:30;94161.75;;;14.30;nan
8334;BME280;4204;43.004;23.052;2023-09-19T02:38:02;94154.66;;;14.34;nan
8334;BME280;4204;43.004;23.052;2023-09-19T02:40:32;94148.56;;;14.25;nan
8334;BME280;4204;43.004;23.052;2023-09-19T02:43:02;94139.72;;;14.33;nan
8334;BME280;4204;43.004;23.052;2023-09-19T02:45:31;94141.47;;;14.29;nan
8334;BME280;4204;43.004;23.052;2023-09-19T02:47:59;94139.41;;;14.26;nan
8334;BME280;4204;43.004;23.052;2023-09-19T02:50:30;94139.19;;;14.19;nan
8334;BME280;4204;43.004;23.052;2023-09-19T02:52:58;94140.22;;;14.26;nan
8334;BME280;4204;43.004;23.052;2023-09-19T02:55:26;94133.72;;;14.36;nan
8334;BME280;4204;43.004;23.052;2023-09-19T02:57:55;94136.41;;;14.36;nan
8334;BME280;4204;43.004;23.052;2023-09-19T03:00:23;94134.94;;;14.38;nan
8334;BME280;4204;43.004;23.052;2023-09-19T03:02:53;94128.09;;;14.29;nan
8334;BME280;4204;43.004;23.052;2023-09-19T03:05:22;94124.56;;;14.16;nan
8334;BME280;4204;43.004;23.052;2023-09-19T03:07:53;94132.41;;;14.21;nan
8334;BME280;4204;43.004;23.052;2023-09-19T03:10:22;94133.94;;;14.22;nan
8334;BME280;4204;43.004;23.052;2023-09-19T03:12:52;94129.66;;;14.30;nan
8334;BME280;4204;43.004;23.052;2023-09-19T03:15:20;94122.75;;;14.08;nan
8334;BME280;4204;43.004;23.052;2023-09-19T03:17:50;94131.84;;;14.07;nan
8334;BME280;4204;43.004;23.052;2023-09-19T03:20:23;94134.53;;;14.07;nan
8334;BME280;4204;43.004;23.052;2023-09-19T03:22:55;94141.91;;;14.10;nan
8334;BME280;4204;43.004;23.052;2023-09-19T03:25:23;94131.34;;;14.14;nan
8334;BME280;4204;43.004;23.052;2023-09-19T03:27:52;94133.31;;;14.05;nan
8334;BME280;4204;43.004;23.052;2023-09-19T03:30:21;94140.34;;;14.09;nan
8334;BME280;4204;43.004;23.052;2023-09-19T03:32:49;94143.47;;;14.11;nan
8334;BME280;4204;43.004;23.052;2023-09-19T03:35:18;94144.19;;;14.20;nan
8334;BME280;4204;43.004;23.052;2023-09-19T03:37:46;94147.13;;;14.27;nan
8334;BME280;4204;43.004;23.052;2023-09-19T03:40:16;94136.94;;;14.29;nan
8334;BME280;4204;43.004;23.052;2023-09-19T03:42:46;94133.75;;;14.27;nan
8334;BME280;4204;43.004;23.052;2023-09-19T03:45:14;94129.66;;;14.30;nan
8334;BME280;4204;43.004;23.052;2023-09-19T03:47:48;94144.16;;;14.29;nan
8334;BME280;4204;43.004;23.052;2023-09-19T03:50:18;94133.25;;;14.34;nan
8334;BME280;4204;43.004;23.052;2023-09-19T03:52:46;94136.72;;;14.34;nan
8334;BME280;4204;43.004;23.052;2023-09-19T03:55:15;94129.75;;;14.42;nan
8334;BME280;4204;43.004;23.052;2023-09-19T03:57:47;94119.78;;;14.42;nan
8334;BME280;4204;43.004;23.052;2023-09-19T04:00:35;94112.78;;;14.38;nan
8334;BME280;4204;43.004;23.052;2023-09-19T04:03:04;94106.97;;;14.36;nan
8334;BME280;4204;43.004;23.052;2023-09-19T04:05:34;94112.56;;;14.43;nan
8334;BME280;4204;43.004;23.052;2023-09-19T04:08:01;94106.28;;;14.39;nan
8334;BME280;4204;43.004;23.052;2023-09-19T04:10:31;94109.34;;;14.49;nan
8334;BME280;4204;43.004;23.052;2023-09-19T04:12:58;94104.06;;;14.41;nan
8334;BME280;4204;43.004;23.052;2023-09-19T04:15:26;94111.53;;;14.35;nan
8334;BME280;4204;43.004;23.052;2023-09-19T04:17:54;94105.19;;;14.40;nan
8334;BME280;4204;43.004;23.052;2023-09-19T04:20:22;94104.97;;;14.45;nan
8334;BME280;4204;43.004;23.052;2023-09-19T04:22:50;94102.19;;;14.41;nan
8334;BME280;4204;43.004;23.052;2023-09-19T04:25:18;94101.28;;;14.37;nan
8334;BME280;4204;43.004;23.052;2023-09-19T04:27:48;94105.53;;;14.50;nan
8334;BME280;4204;43.004;23.052;2023-09-19T04:30:16;94108.75;;;14.65;nan
8334;BME280;4204;43.004;23.052;2023-09-19T04:32:44;94120.44;;;14.60;nan
8334;BME280;4204;43.004;23.052;2023-09-19T04:35:16;94122.44;;;14.63;nan
8334;BME280;4204;43.004;23.052;2023-09-19T04:37:44;94131.06;;;14.69;nan
8334;BME280;4204;43.004;23.052;2023-09-19T04:40:12;94125.38;;;14.70;nan
8334;BME280;4204;43.004;23.052;2023-09-19T04:42:43;94130.53;;;14.75;nan
8334;BME280;4204;43.004;23.052;2023-09-19T04:45:14;94129.19;;;14.81;nan
8334;BME280;4204;43.004;23.052;2023-09-19T04:47:44;94127.50;;;14.77;nan
8334;BME280;4204;43.004;23.052;2023-09-19T04:50:12;94120.47;;;14.72;nan
8334;BME280;4204;43.004;23.052;2023-09-19T04:52:40;94106.28;;;14.72;nan
8334;BME280;4204;43.004;23.052;2023-09-19T04:55:29;94095.47;;;14.80;nan
8334;BME280;4204;43.004;23.052;2023-09-19T04:57:59;94111.13;;;15.02;nan
8334;BME280;4204;43.004;23.052;2023-09-19T05:00:28;94109.94;;;15.24;nan
8334;BME280;4204;43.004;23.052;2023-09-19T05:02:57;94112.19;;;15.34;nan
8334;BME280;4204;43.004;23.052;2023-09-19T05:05:25;94113.41;;;15.36;nan
8334;BME280;4204;43.004;23.052;2023-09-19T05:07:53;94113.06;;;15.38;nan
8334;BME280;4204;43.004;23.052;2023-09-19T05:10:22;94115.56;;;15.43;nan
8334;BME280;4204;43.004;23.052;2023-09-19T05:12:53;94116.69;;;15.54;nan
8334;BME280;4204;43.004;23.052;2023-09-19T05:15:20;94122.28;;;15.49;nan
8334;BME280;4204;43.004;23.052;2023-09-19T05:17:50;94117.81;;;15.53;nan
8334;BME280;4204;43.004;23.052;2023-09-19T05:20:18;94111.44;;;15.58;nan
8334;BME280;4204;43.004;23.052;2023-09-19T05:22:57;94112.97;;;15.71;nan
8334;BME280;4204;43.004;23.052;2023-09-19T05:25:28;94106.41;;;15.68;nan
8334;BME280;4204;43.004;23.052;2023-09-19T05:27:57;94105.03;;;15.86;nan
8334;BME280;4204;43.004;23.052;2023-09-19T05:30:25;94105.91;;;15.90;nan
8334;BME280;4204;43.004;23.052;2023-09-19T05:32:56;94097.63;;;15.95;nan
8334;BME280;4204;43.004;23.052;2023-09-19T05:35:25;94101.94;;;16.12;nan
8334;BME280;4204;43.004;23.052;2023-09-19T05:37:54;94095.13;;;16.14;nan
8334;BME280;4204;43.004;23.052;2023-09-19T05:40:22;94109.50;;;16.34;nan
8334;BME280;4204;43.004;23.052;2023-09-19T05:42:50;94104.88;;;16.35;nan
8334;BME280;4204;43.004;23.052;2023-09-19T05:45:18;94108.00;;;16.49;nan
8334;BME280;4204;43.004;23.052;2023-09-19T05:47:49;94105.28;;;16.61;nan
8334;BME280;4204;43.004;23.052;2023-09-19T05:50:18;94093.84;;;16.64;nan
8334;BME280;4204;43.004;23.052;2023-09-19T05:52:51;94103.16;;;16.82;nan
8334;BME280;4204;43.004;23.052;2023-09-19T05:55:19;94095.25;;;16.89;nan
8334;BME280;4204;43.004;23.052;2023-09-19T05:57:50;94099.38;;;16.98;nan
8334;BME280;4204;43.004;23.052;2023-09-19T06:00:18;94089.22;;;17.08;nan
8334;BME280;4204;43.004;23.052;2023-09-19T06:02:50;94080.38;;;17.07;nan
8334;BME280;4204;43.004;23.052;2023-09-19T06:05:21;94088.97;;;17.28;nan
8334;BME280;4204;43.004;23.052;2023-09-19T06:07:49;94086.03;;;17.33;nan
8334;BME280;4204;43.004;23.052;2023-09-19T06:10:17;94081.94;;;17.39;nan
8334;BME280;4204;43.004;23.052;2023-09-19T06:12:47;94096.59;;;17.57;nan
8334;BME280;4204;43.004;23.052;2023-09-19T06:15:15;94091.63;;;17.75;nan
8334;BME280;4204;43.004;23.052;2023-09-19T06:17:47;94088.72;;;17.84;nan
8334;BME280;4204;43.004;23.052;2023-09-19T06:20:14;94099.66;;;17.91;nan
8334;BME280;4204;43.004;23.052;2023-09-19T06:22:45;94089.13;;;18.01;nan
8334;BME280;4204;43.004;23.052;2023-09-19T06:25:14;94090.06;;;18.09;nan
8334;BME280;4204;43.004;23.052;2023-09-19T06:27:45;94099.78;;;18.13;nan
8334;BME280;4204;43.004;23.052;2023-09-19T06:30:13;94091.44;;;18.18;nan
8334;BME280;4204;43.004;23.052;2023-09-19T06:32:41;94091.97;;;18.27;nan
8334;BME280;4204;43.004;23.052;2023-09-19T06:35:10;94092.75;;;18.28;nan
8334;BME280;4204;43.004;23.052;2023-09-19T06:37:38;94097.53;;;18.34;nan
8334;BME280;4204;43.004;23.052;2023-09-19T06:40:09;94099.72;;;18.29;nan
8334;BME280;4204;43.004;23.052;2023-09-19T06:42:40;94104.47;;;18.35;nan
8334;BME280;4204;43.004;23.052;2023-09-19T06:45:09;94092.94;;;18.35;nan
8334;BME280;4204;43.004;23.052;2023-09-19T06:47:38;94107.66;;;18.41;nan
8334;BME280;4204;43.004;23.052;2023-09-19T06:50:06;94112.88;;;18.49;nan
8334;BME280;4204;43.004;23.052;2023-09-19T06:52:39;94100.38;;;18.61;nan
8334;BME280;4204;43.004;23.052;2023-09-19T06:55:09;94100.47;;;18.64;nan
8334;BME280;4204;43.004;23.052;2023-09-19T06:57:39;94093.94;;;18.65;nan
8334;BME280;4204;43.004;23.052;2023-09-19T07:00:10;94105.75;;;18.80;nan
8334;BME280;4204;43.004;23.052;2023-09-19T07:02:56;94115.94;;;18.90;nan
8334;BME280;4204;43.004;23.052;2023-09-19T07:05:25;94115.06;;;18.82;nan
8334;BME280;4204;43.004;23.052;2023-09-19T07:07:54;94113.41;;;18.78;nan
8334;BME280;4204;43.004;23.052;2023-09-19T07:10:23;94119.84;;;18.92;nan
8334;BME280;4204;43.004;23.052;2023-09-19T07:12:56;94123.97;;;19.05;nan
8334;BME280;4204;43.004;23.052;2023-09-19T07:15:24;94138.13;;;19.02;nan
8334;BME280;4204;43.004;23.052;2023-09-19T07:17:52;94140.56;;;19.07;nan
8334;BME280;4204;43.004;23.052;2023-09-19T07:20:20;94139.41;;;19.08;nan
8334;BME280;4204;43.004;23.052;2023-09-19T07:22:49;94138.06;;;19.18;nan
8334;BME280;4204;43.004;23.052;2023-09-19T07:25:17;94133.13;;;19.23;nan
8334;BME280;4204;43.004;23.052;2023-09-19T07:28:21;94127.41;;;19.28;nan
8334;BME280;4204;43.004;23.052;2023-09-19T07:30:49;94133.81;;;19.40;nan
8334;BME280;4204;43.004;23.052;2023-09-19T07:33:19;94127.47;;;19.51;nan
8334;BME280;4204;43.004;23.052;2023-09-19T07:35:47;94118.34;;;19.59;nan
8334;BME280;4204;43.004;23.052;2023-09-19T07:38:18;94117.75;;;19.69;nan
8334;BME280;4204;43.004;23.052;2023-09-19T07:40:47;94115.47;;;19.71;nan
8334;BME280;4204;43.004;23.052;2023-09-19T07:43:45;94101.75;;;19.83;nan
8334;BME280;4204;43.004;23.052;2023-09-19T07:46:13;94094.38;;;19.80;nan
8334;BME280;4204;43.004;23.052;2023-09-19T07:48:42;94084.88;;;19.90;nan
8334;BME280;4204;43.004;23.052;2023-09-19T07:51:14;94101.31;;;20.07;nan
8334;BME280;4204;43.004;23.052;2023-09-19T07:53:42;94107.53;;;20.11;nan
8334;BME280;4204;43.004;23.052;2023-09-19T07:56:10;94105.25;;;20.13;nan
8334;BME280;4204;43.004;23.052;2023-09-19T07:58:39;94109.16;;;20.16;nan
8334;BME280;4204;43.004;23.052;2023-09-19T08:01:11;94110.44;;;20.22;nan
8334;BME280;4204;43.004;23.052;2023-09-19T08:03:40;94101.06;;;20.16;nan
8334;BME280;4204;43.004;23.052;2023-09-19T08:06:09;94102.38;;;20.26;nan
8334;BME280;4204;43.004;23.052;2023-09-19T08:08:37;94098.34;;;20.42;nan
8334;BME280;4204;43.004;23.052;2023-09-19T08:11:05;94087.44;;;20.65;nan
8334;BME280;4204;43.004;23.052;2023-09-19T08:13:37;94088.19;;;20.65;nan
8334;BME280;4204;43.004;23.052;2023-09-19T08:16:07;94081.03;;;20.80;nan
8334;BME280;4204;43.004;23.052;2023-09-19T08:18:36;94083.06;;;20.90;nan
8334;BME280;4204;43.004;23.052;2023-09-19T08:21:06;94083.72;;;20.80;nan
8334;BME280;4204;43.004;23.052;2023-09-19T08:23:37;94083.94;;;21.01;nan
8334;BME280;4204;43.004;23.052;2023-09-19T08:26:05;94066.28;;;21.11;nan
8334;BME280;4204;43.004;23.052;2023-09-19T08:28:34;94080.28;;;21.16;nan
8334;BME280;4204;43.004;23.052;2023-09-19T08:31:02;94085.81;;;21.30;nan
8334;BME280;4204;43.004;23.052;2023-09-19T08:33:32;94082.78;;;21.35;nan
8334;BME280;4204;43.004;23.052;2023-09-19T08:36:02;94084.00;;;21.45;nan
8334;BME280;4204;43.004;23.052;2023-09-19T08:38:31;94092.94;;;21.49;nan
8334;BME280;4204;43.004;23.052;2023-09-19T08:41:00;94090.69;;;21.58;nan
8334;BME280;4204;43.004;23.052;2023-09-19T08:43:28;94089.84;;;21.50;nan
8334;BME280;4204;43.004;23.052;2023-09-19T08:46:02;94082.47;;;21.47;nan
8334;BME280;4204;43.004;23.052;2023-09-19T08:48:31;94085.94;;;21.48;nan
8334;BME280;4204;43.004;23.052;2023-09-19T08:51:06;94086.81;;;21.59;nan
8334;BME280;4204;43.004;23.052;2023-09-19T08:53:40;94079.81;;;21.54;nan
8334;BME280;4204;43.004;23.052;2023-09-19T08:56:10;94076.00;;;21.59;nan
8334;BME280;4204;43.004;23.052;2023-09-19T08:58:45;94079.13;;;21.64;nan
8334;BME280;4204;43.004;23.052;2023-09-19T09:01:15;94081.50;;;21.73;nan
8334;BME280;4204;43.004;23.052;2023-09-19T09:03:44;94070.63;;;21.66;nan
8334;BME280;4204;43.004;23.052;2023-09-19T09:06:15;94070.78;;;21.84;nan
8334;BME280;4204;43.004;23.052;2023-09-19T09:08:44;94069.63;;;21.85;nan
8334;BME280;4204;43.004;23.052;2023-09-19T09:11:15;94060.03;;;21.94;nan
8334;BME280;4204;43.004;23.052;2023-09-19T09:13:43;94062.78;;;22.01;nan
8334;BME280;4204;43.004;23.052;2023-09-19T09:16:12;94065.50;;;22.05;nan
8334;BME280;4204;43.004;23.052;2023-09-19T09:18:40;94054.69;;;22.08;nan
8334;BME280;4204;43.004;23.052;2023-09-19T09:21:10;94051.63;;;22.20;nan
8334;BME280;4204;43.004;23.052;2023-09-19T09:23:39;94058.28;;;22.33;nan
8334;BME280;4204;43.004;23.052;2023-09-19T09:26:07;94065.28;;;22.34;nan
8334;BME280;4204;43.004;23.052;2023-09-19T09:28:35;94058.34;;;22.40;nan
8334;BME280;4204;43.004;23.052;2023-09-19T09:31:22;94059.56;;;22.57;nan
8334;BME280;4204;43.004;23.052;2023-09-19T09:33:53;94058.03;;;22.60;nan
8334;BME280;4204;43.004;23.052;2023-09-19T09:36:34;94056.13;;;22.74;nan
8334;BME280;4204;43.004;23.052;2023-09-19T09:39:04;94056.91;;;22.71;nan
8334;BME280;4204;43.004;23.052;2023-09-19T09:41:45;94055.72;;;22.62;nan
8334;BME280;4204;43.004;23.052;2023-09-19T09:44:13;94034.06;;;22.69;nan
8334;BME280;4204;43.004;23.052;2023-09-19T09:46:46;94047.28;;;22.84;nan
8334;BME280;4204;43.004;23.052;2023-09-19T09:49:28;94042.25;;;22.90;nan
8334;BME280;4204;43.004;23.052;2023-09-19T09:52:01;94044.97;;;23.04;nan
8334;BME280;4204;43.004;23.052;2023-09-19T09:54:35;94046.16;;;23.03;nan
8334;BME280;4204;43.004;23.052;2023-09-19T09:57:05;94045.75;;;23.04;nan
8334;BME280;4204;43.004;23.052;2023-09-19T09:59:48;94032.56;;;22.96;nan
8334;BME280;4204;43.004;23.052;2023-09-19T10:02:18;94033.34;;;23.03;nan
8334;BME280;4204;43.004;23.052;2023-09-19T10:04:51;94042.28;;;23.18;nan
8334;BME280;4204;43.004;23.052;2023-09-19T10:07:26;94044.97;;;23.04;nan
8334;BME280;4204;43.004;23.052;2023-09-19T10:10:05;94043.84;;;23.19;nan
8334;BME280;4204;43.004;23.052;2023-09-19T10:12:44;94049.66;;;23.14;nan
8334;BME280;4204;43.004;23.052;2023-09-19T10:15:17;94053.94;;;23.15;nan
8334;BME280;4204;43.004;23.052;2023-09-19T10:17:47;94055.88;;;23.21;nan
8334;BME280;4204;43.004;23.052;2023-09-19T10:20:16;94056.25;;;23.20;nan
8334;BME280;4204;43.004;23.052;2023-09-19T10:23:11;94051.19;;;23.18;nan
8334;BME280;4204;43.004;23.052;2023-09-19T10:25:41;94047.34;;;23.26;nan
8334;BME280;4204;43.004;23.052;2023-09-19T10:28:11;94031.84;;;23.34;nan
8334;BME280;4204;43.004;23.052;2023-09-19T10:30:42;94027.59;;;23.37;nan
8334;BME280;4204;43.004;23.052;2023-09-19T10:33:12;94034.59;;;23.48;nan
8334;BME280;4204;43.004;23.052;2023-09-19T10:35:43;94036.13;;;23.56;nan
8334;BME280;4204;43.004;23.052;2023-09-19T10:38:12;94028.38;;;23.58;nan
8334;BME280;4204;43.004;23.052;2023-09-19T10:40:42;94029.91;;;23.66;nan
8334;BME280;4204;43.004;23.052;2023-09-19T10:43:15;94015.97;;;23.61;nan
8334;BME280;4204;43.004;23.052;2023-09-19T10:45:46;94025.63;;;23.72;nan
8334;BME280;4204;43.004;23.052;2023-09-19T10:48:16;94021.75;;;23.73;nan
8334;BME280;4204;43.004;23.052;2023-09-19T10:50:48;94022.88;;;23.93;nan
8334;BME280;4204;43.004;23.052;2023-09-19T10:53:18;94008.13;;;24.01;nan
8334;BME280;4204;43.004;23.052;2023-09-19T10:55:52;94013.94;;;24.11;nan
8334;BME280;4204;43.004;23.052;2023-09-19T10:58:26;94004.19;;;24.20;nan
8334;BME280;4204;43.004;23.052;2023-09-19T11:00:56;94001.47;;;24.24;nan
8334;BME280;4204;43.004;23.052;2023-09-19T11:03:28;94002.22;;;24.35;nan
8334;BME280;4204;43.004;23.052;2023-09-19T11:06:05;93991.66;;;24.44;nan
8334;BME280;4204;43.004;23.052;2023-09-19T11:09:00;93985.44;;;24.47;nan
8334;BME280;4204;43.004;23.052;2023-09-19T11:11:52;93975.03;;;24.28;nan
8334;BME280;4204;43.004;23.052;2023-09-19T11:14:40;93969.50;;;24.49;nan
8334;BME280;4204;43.004;23.052;2023-09-19T11:17:41;93954.66;;;24.60;nan
8334;BME280;4204;43.004;23.052;2023-09-19T11:20:29;93958.53;;;24.66;nan
8334;BME280;4204;43.004;23.052;2023-09-19T11:23:23;93949.50;;;24.83;nan
8334;BME280;4204;43.004;23.052;2023-09-19T11:25:53;93940.63;;;24.69;nan
8334;BME280;4204;43.004;23.052;2023-09-19T11:28:30;93937.44;;;24.88;nan
8334;BME280;4204;43.004;23.052;2023-09-19T11:30:57;93932.00;;;24.88;nan
8334;BME280;4204;43.004;23.052;2023-09-19T11:33:26;93932.63;;;25.06;nan
8334;BME280;4204;43.004;23.052;2023-09-19T11:36:03;93932.97;;;25.12;nan
8334;BME280;4204;43.004;23.052;2023-09-19T11:41:41;93925.75;;;25.35;nan
8334;BME280;4204;43.004;23.052;2023-09-19T11:44:41;93929.59;;;25.45;nan
8334;BME280;4204;43.004;23.052;2023-09-19T11:47:10;93919.84;;;25.47;nan
8334;BME280;4204;43.004;23.052;2023-09-19T11:49:40;93924.84;;;25.52;nan
8334;BME280;4204;43.004;23.052;2023-09-19T11:52:07;93920.19;;;25.53;nan
8334;BME280;4204;43.004;23.052;2023-09-19T11:54:36;93918.94;;;25.61;nan
8334;BME280;4204;43.004;23.052;2023-09-19T11:57:07;93905.78;;;25.52;nan
8334;BME280;4204;43.004;23.052;2023-09-19T11:59:38;93903.38;;;25.61;nan
8334;BME280;4204;43.004;23.052;2023-09-19T12:02:08;93909.94;;;25.64;nan
8334;BME280;4204;43.004;23.052;2023-09-19T12:04:40;93906.16;;;25.54;nan
8334;BME280;4204;43.004;23.052;2023-09-19T12:07:11;93893.63;;;25.60;nan
8334;BME280;4204;43.004;23.052;2023-09-19T12:09:42;93888.91;;;25.64;nan
8334;BME280;4204;43.004;23.052;2023-09-19T12:12:10;93882.16;;;25.80;nan
8334;BME280;4204;43.004;23.052;2023-09-19T12:14:47;93881.25;;;25.90;nan
8334;BME280;4204;43.004;23.052;2023-09-19T12:17:17;93888.16;;;25.98;nan
8334;BME280;4204;43.004;23.052;2023-09-19T12:19:52;93877.53;;;26.07;nan
8334;BME280;4204;43.004;23.052;2023-09-19T12:22:20;93868.97;;;26.08;nan
8334;BME280;4204;43.004;23.052;2023-09-19T12:24:48;93872.28;;;26.23;nan
8334;BME280;4204;43.004;23.052;2023-09-19T12:27:17;93874.72;;;26.17;nan
8334;BME280;4204;43.004;23.052;2023-09-19T12:29:46;93876.03;;;26.32;nan
8334;BME280;4204;43.004;23.052;2023-09-19T12:32:16;93878.81;;;26.29;nan
8334;BME280;4204;43.004;23.052;2023-09-19T12:34:51;93865.47;;;26.38;nan
8334;BME280;4204;43.004;23.052;2023-09-19T12:37:20;93868.56;;;26.40;nan
8334;BME280;4204;43.004;23.052;2023-09-19T12:39:50;93857.28;;;26.38;nan
8334;BME280;4204;43.004;23.052;2023-09-19T12:42:21;93863.09;;;26.40;nan
8334;BME280;4204;43.004;23.052;2023-09-19T12:44:51;93859.81;;;26.48;nan
8334;BME280;4204;43.004;23.052;2023-09-19T12:47:23;93859.03;;;26.52;nan
8334;BME280;4204;43.004;23.052;2023-09-19T12:50:08;93856.13;;;26.62;nan
8334;BME280;4204;43.004;23.052;2023-09-19T12:52:40;93861.59;;;26.62;nan
8334;BME280;4204;43.004;23.052;2023-09-19T12:55:19;93858.03;;;26.65;nan
8334;BME280;4204;43.004;23.052;2023-09-19T12:57:59;93852.06;;;26.74;nan
8334;BME280;4204;43.004;23.052;2023-09-19T13:00:34;93854.69;;;26.54;nan
8334;BME280;4204;43.004;23.052;2023-09-19T13:03:15;93852.06;;;26.47;nan
8334;BME280;4204;43.004;23.052;2023-09-19T13:05:49;93855.22;;;26.45;nan
8334;BME280;4204;43.004;23.052;2023-09-19T13:08:20;93842.34;;;26.46;nan
8334;BME280;4204;43.004;23.052;2023-09-19T13:11:09;93844.59;;;26.51;nan
8334;BME280;4204;43.004;23.052;2023-09-19T13:13:40;93852.91;;;26.44;nan
8334;BME280;4204;43.004;23.052;2023-09-19T13:16:08;93844.34;;;26.42;nan
8334;BME280;4204;43.004;23.052;2023-09-19T13:18:45;93847.66;;;26.57;nan
8334;BME280;4204;43.004;23.052;2023-09-19T13:21:14;93847.84;;;26.42;nan
8334;BME280;4204;43.004;23.052;2023-09-19T13:24:19;93854.06;;;26.43;nan
8334;BME280;4204;43.004;23.052;2023-09-19T13:26:47;93849.47;;;26.40;nan
8334;BME280;4204;43.004;23.052;2023-09-19T13:29:15;93842.19;;;26.57;nan
8334;BME280;4204;43.004;23.052;2023-09-19T13:31:46;93831.06;;;26.71;nan
8334;BME280;4204;43.004;23.052;2023-09-19T13:34:15;93834.66;;;26.64;nan
8334;BME280;4204;43.004;23.052;2023-09-19T13:36:43;93836.59;;;26.64;nan
8334;BME280;4204;43.004;23.052;2023-09-19T13:39:11;93836.75;;;26.57;nan
8334;BME280;4204;43.004;23.052;2023-09-19T13:41:41;93838.69;;;26.56;nan
8334;BME280;4204;43.004;23.052;2023-09-19T13:44:09;93841.78;;;26.58;nan
8334;BME280;4204;43.004;23.052;2023-09-19T13:46:37;93835.84;;;26.63;nan
8334;BME280;4204;43.004;23.052;2023-09-19T13:49:06;93836.84;;;26.76;nan
8334;BME280;4204;43.004;23.052;2023-09-19T13:51:37;93838.78;;;26.76;nan
8334;BME280;4204;43.004;23.052;2023-09-19T13:54:05;93836.41;;;26.78;nan
8334;BME280;4204;43.004;23.052;2023-09-19T13:56:33;93840.81;;;26.95;nan
8334;BME280;4204;43.004;23.052;2023-09-19T13:59:00;93842.03;;;26.94;nan